createdAt,value
2023-06-24T00:01:41.070Z,101007.11
2023-06-24T00:03:38.566Z,101008.92
2023-06-24T00:05:33.164Z,101009.67
2023-06-24T00:07:27.887Z,101006.63
2023-06-24T00:09:20.981Z,101005.26
2023-06-24T00:11:16.693Z,101008.27
2023-06-24T00:13:09.744Z,101004.25
2023-06-24T00:15:02.815Z,101004.33
2023-06-24T00:16:57.537Z,101002.55
2023-06-24T00:18:50.641Z,101002.50
2023-06-24T00:20:44.608Z,101003.65
2023-06-24T00:22:45.665Z,101005.62
2023-06-24T00:24:41.053Z,101010.30
2023-06-24T00:26:34.102Z,101007.70
2023-06-24T00:28:27.060Z,101007.69
2023-06-24T00:30:20.610Z,101007.63
2023-06-24T00:32:13.870Z,101009.15
2023-06-24T00:34:06.931Z,101013.59
2023-06-24T00:35:59.870Z,101015.77
2023-06-24T00:37:59.296Z,101017.30
2023-06-24T00:39:53.545Z,101014.81
2023-06-24T00:41:47.451Z,101015.62
2023-06-24T00:43:40.568Z,101014.23
2023-06-24T00:45:33.756Z,101015.45
2023-06-24T00:47:27.319Z,101014.61
2023-06-24T00:49:20.338Z,101016.75
2023-06-24T00:51:13.388Z,101018.58
2023-06-24T00:53:06.334Z,101017.52
2023-06-24T00:54:59.281Z,101023.97
2023-06-24T00:56:52.237Z,101028.71
2023-06-24T00:58:45.384Z,101029.84
2023-06-24T01:00:39.062Z,101037.23
2023-06-24T01:02:33.702Z,101033.31
2023-06-24T01:04:26.993Z,101032.52
2023-06-24T01:06:20.563Z,101032.15
2023-06-24T01:08:16.738Z,101034.27
2023-06-24T01:10:13.906Z,101037.99
2023-06-24T01:12:07.936Z,101037.02
2023-06-24T01:14:01.245Z,101033.37
2023-06-24T01:15:54.714Z,101038.00
2023-06-24T01:18:19.982Z,101040.20
2023-06-24T01:20:29.046Z,101037.09
2023-06-24T01:22:49.451Z,101038.89
2023-06-24T01:24:54.575Z,101040.58
2023-06-24T01:27:12.919Z,101042.79
2023-06-24T01:29:46.517Z,101047.86
2023-06-24T01:31:50.333Z,101051.69
2023-06-24T01:33:51.514Z,101054.77
2023-06-24T01:35:49.021Z,101057.29
2023-06-24T01:37:52.584Z,101056.00
2023-06-24T01:39:56.008Z,101062.08
2023-06-24T01:42:00.642Z,101065.27
2023-06-24T01:43:54.726Z,101062.08
2023-06-24T01:45:52.197Z,101068.37
2023-06-24T01:47:48.860Z,101068.14
2023-06-24T01:49:43.920Z,101068.96
2023-06-24T01:51:41.764Z,101064.85
2023-06-24T01:53:43.961Z,101063.53
2023-06-24T01:55:39.816Z,101062.22
2023-06-24T01:57:35.566Z,101066.55
2023-06-24T01:59:30.755Z,101064.30
2023-06-24T02:01:25.220Z,101064.98
2023-06-24T02:03:20.024Z,101066.34
2023-06-24T02:05:15.249Z,101068.93
2023-06-24T02:07:10.454Z,101065.91
2023-06-24T02:09:06.675Z,101063.33
2023-06-24T02:11:02.671Z,101065.07
2023-06-24T02:12:57.468Z,101065.52
2023-06-24T02:14:53.793Z,101064.18
2023-06-24T02:16:49.030Z,101068.10
2023-06-24T02:18:44.609Z,101070.25
2023-06-24T02:20:40.430Z,101069.10
2023-06-24T02:22:33.479Z,101067.66
2023-06-24T02:24:28.879Z,101072.80
2023-06-24T02:26:24.181Z,101073.61
2023-06-24T02:28:19.176Z,101074.11
2023-06-24T02:32:53.053Z,101066.56
2023-06-24T02:34:47.588Z,101062.49
2023-06-24T02:36:40.746Z,101063.14
2023-06-24T02:38:34.093Z,101066.60
2023-06-24T02:40:28.475Z,101066.24
2023-06-24T02:42:21.839Z,101068.64
2023-06-24T02:44:15.108Z,101073.02
2023-06-24T02:46:10.297Z,101074.75
2023-06-24T02:48:04.438Z,101076.48
2023-06-24T02:49:59.260Z,101083.66
2023-06-24T02:51:52.514Z,101084.05
2023-06-24T02:53:48.030Z,101082.66
2023-06-24T02:55:42.618Z,101089.87
2023-06-24T02:57:37.559Z,101095.05
2023-06-24T02:59:49.326Z,101101.85
2023-06-24T03:01:46.299Z,101105.00
2023-06-24T03:03:41.006Z,101114.00
2023-06-24T03:05:37.838Z,101114.81
2023-06-24T03:07:32.178Z,101120.66
2023-06-24T03:09:25.422Z,101123.25
2023-06-24T03:11:18.462Z,101123.30
2023-06-24T03:13:11.439Z,101127.80
2023-06-24T03:15:10.521Z,101129.23
2023-06-24T03:17:04.262Z,101136.46
2023-06-24T03:18:57.331Z,101139.64
2023-06-24T03:20:50.466Z,101138.95
2023-06-24T03:22:46.106Z,101141.09
2023-06-24T03:24:39.746Z,101141.30
2023-06-24T03:26:34.471Z,101145.84
2023-06-24T03:28:27.797Z,101143.48
2023-06-24T03:30:30.052Z,101145.70
2023-06-24T03:32:23.007Z,101147.56
2023-06-24T03:34:18.039Z,101143.48
2023-06-24T03:36:12.072Z,101145.07
2023-06-24T03:38:05.637Z,101145.55
2023-06-24T03:39:59.200Z,101140.56
2023-06-24T03:41:52.388Z,101142.36
2023-06-24T03:43:53.185Z,101138.73
2023-06-24T03:45:46.293Z,101140.29
2023-06-24T03:47:40.020Z,101138.77
2023-06-24T03:49:33.156Z,101138.70
2023-06-24T03:51:27.126Z,101138.36
2023-06-24T03:53:20.074Z,101138.15
2023-06-24T03:55:13.129Z,101136.56
2023-06-24T03:57:07.433Z,101136.64
2023-06-24T03:59:00.352Z,101134.33
2023-06-24T04:00:53.330Z,101138.19
2023-06-24T04:02:46.723Z,101137.36
2023-06-24T04:04:39.804Z,101138.30
2023-06-24T04:06:32.754Z,101144.59
2023-06-24T04:08:31.850Z,101146.99
2023-06-24T04:10:26.946Z,101147.12
2023-06-24T04:12:19.899Z,101148.54
2023-06-24T04:14:13.969Z,101151.86
2023-06-24T04:16:07.036Z,101153.22
2023-06-24T04:18:00.141Z,101156.20
2023-06-24T04:19:53.529Z,101160.22
2023-06-24T04:21:46.587Z,101161.47
2023-06-24T04:23:40.051Z,101166.36
2023-06-24T04:25:33.240Z,101168.51
2023-06-24T04:27:26.449Z,101166.07
2023-06-24T04:29:19.505Z,101170.45
2023-06-24T04:31:12.569Z,101173.47
2023-06-24T04:33:06.409Z,101174.09
2023-06-24T04:35:02.061Z,101174.77
2023-06-24T04:36:55.398Z,101174.13
2023-06-24T04:38:48.441Z,101178.61
2023-06-24T04:40:41.389Z,101178.23
2023-06-24T04:42:34.441Z,101178.80
2023-06-24T04:44:27.387Z,101176.38
2023-06-24T04:46:20.556Z,101178.49
2023-06-24T04:48:13.595Z,101177.24
2023-06-24T04:50:07.584Z,101177.70
2023-06-24T04:52:03.927Z,101181.36
2023-06-24T04:53:56.940Z,101185.64
2023-06-24T04:55:49.894Z,101185.99
2023-06-24T04:57:43.671Z,101187.27
2023-06-24T04:59:37.548Z,101183.83
2023-06-24T05:01:30.958Z,101184.23
2023-06-24T05:03:24.253Z,101184.31
2023-06-24T05:05:17.315Z,101183.39
2023-06-24T05:07:10.473Z,101182.77
2023-06-24T05:09:03.916Z,101181.48
2023-06-24T05:10:57.059Z,101182.52
2023-06-24T05:12:50.015Z,101181.91
2023-06-24T05:14:42.898Z,101180.04
2023-06-24T05:16:36.112Z,101181.94
2023-06-24T05:18:29.061Z,101187.64
2023-06-24T05:20:22.022Z,101191.41
2023-06-24T05:22:15.270Z,101190.68
2023-06-24T05:24:08.420Z,101192.51
2023-06-24T05:26:01.362Z,101193.16
2023-06-24T05:27:54.431Z,101190.63
2023-06-24T05:29:47.670Z,101189.52
2023-06-24T05:31:41.949Z,101187.60
2023-06-24T05:33:34.898Z,101185.80
2023-06-24T05:35:27.854Z,101185.16
2023-06-24T05:37:20.900Z,101185.30
2023-06-24T05:39:14.768Z,101186.91
2023-06-24T05:41:07.817Z,101189.01
2023-06-24T05:43:02.028Z,101191.21
2023-06-24T05:44:55.041Z,101188.60
2023-06-24T05:46:48.096Z,101183.64
2023-06-24T05:48:41.147Z,101182.59
2023-06-24T05:50:34.097Z,101182.98
2023-06-24T05:52:27.167Z,101189.48
2023-06-24T05:54:20.019Z,101192.73
2023-06-24T05:56:12.936Z,101188.04
2023-06-24T05:58:05.888Z,101191.60
2023-06-24T05:59:58.728Z,101189.98
2023-06-24T06:01:51.700Z,101188.45
2023-06-24T06:03:44.679Z,101187.45
2023-06-24T06:05:37.939Z,101189.68
2023-06-24T06:07:31.033Z,101188.30
2023-06-24T06:09:23.979Z,101186.52
2023-06-24T06:11:16.930Z,101185.11
2023-06-24T06:13:09.877Z,101184.79
2023-06-24T06:15:02.928Z,101181.23
2023-06-24T06:16:56.089Z,101180.65
2023-06-24T06:18:49.148Z,101178.12
2023-06-24T06:20:42.292Z,101181.41
2023-06-24T06:22:39.041Z,101182.15
2023-06-24T06:24:32.043Z,101183.08
2023-06-24T06:26:25.183Z,101187.59
2023-06-24T06:28:18.186Z,101183.81
2023-06-24T06:30:11.872Z,101184.98
2023-06-24T06:32:05.680Z,101184.68
2023-06-24T06:33:58.726Z,101188.55
2023-06-24T06:35:51.812Z,101191.48
2023-06-24T06:37:44.765Z,101188.68
2023-06-24T06:39:37.712Z,101190.70
2023-06-24T06:41:30.676Z,101189.20
2023-06-24T06:43:23.708Z,101190.92
2023-06-24T06:45:16.804Z,101187.37
2023-06-24T06:47:11.752Z,101189.13
2023-06-24T06:49:04.716Z,101190.88
2023-06-24T06:50:57.652Z,101190.45
2023-06-24T06:52:50.712Z,101193.36
2023-06-24T06:54:43.754Z,101193.35
2023-06-24T06:56:36.814Z,101195.09
2023-06-24T06:58:29.758Z,101194.83
2023-06-24T07:00:22.903Z,101194.95
2023-06-24T07:02:15.905Z,101192.32
2023-06-24T07:04:08.903Z,101191.11
2023-06-24T07:06:02.569Z,101191.05
2023-06-24T07:07:55.616Z,101191.50
2023-06-24T07:09:49.182Z,101194.75
2023-06-24T07:11:42.975Z,101188.04
2023-06-24T07:13:35.894Z,101190.23
2023-06-24T07:15:29.387Z,101189.83
2023-06-24T07:17:22.432Z,101190.52
2023-06-24T07:19:15.368Z,101193.17
2023-06-24T07:21:08.413Z,101192.00
2023-06-24T07:23:01.766Z,101188.82
2023-06-24T07:24:54.715Z,101189.23
2023-06-24T07:26:47.767Z,101190.74
2023-06-24T07:28:40.712Z,101188.27
2023-06-24T07:30:33.656Z,101190.27
2023-06-24T07:32:26.775Z,101195.70
2023-06-24T07:34:19.862Z,101195.23
2023-06-24T07:36:14.854Z,101194.27
2023-06-24T07:38:07.909Z,101194.66
2023-06-24T07:40:00.991Z,101193.14
2023-06-24T07:41:54.007Z,101195.31
2023-06-24T07:43:46.952Z,101197.09
2023-06-24T07:45:39.901Z,101200.77
2023-06-24T07:47:33.341Z,101201.75
2023-06-24T07:49:26.412Z,101209.13
2023-06-24T07:51:19.674Z,101207.11
2023-06-24T07:53:12.626Z,101200.10
2023-06-24T07:55:07.327Z,101197.42
2023-06-24T07:57:00.257Z,101194.45
2023-06-24T07:58:53.312Z,101190.79
2023-06-24T08:00:46.896Z,101196.84
2023-06-24T08:02:39.899Z,101200.02
2023-06-24T08:04:33.171Z,101197.52
2023-06-24T08:06:26.766Z,101198.58
2023-06-24T08:08:20.934Z,101198.84
2023-06-24T08:10:14.168Z,101203.43
2023-06-24T08:12:07.834Z,101204.12
2023-06-24T08:14:00.896Z,101201.01
2023-06-24T08:15:53.836Z,101203.09
2023-06-24T08:17:52.758Z,101200.05
2023-06-24T08:19:45.774Z,101200.66
2023-06-24T08:21:39.130Z,101198.39
2023-06-24T08:23:32.090Z,101199.23
2023-06-24T08:25:25.335Z,101205.25
2023-06-24T08:27:18.279Z,101206.40
2023-06-24T08:29:11.278Z,101203.09
2023-06-24T08:31:04.174Z,101205.75
2023-06-24T08:32:57.274Z,101205.62
2023-06-24T08:34:50.283Z,101211.61
2023-06-24T08:36:43.352Z,101202.04
2023-06-24T08:38:36.280Z,101206.85
2023-06-24T08:40:30.667Z,101207.02
2023-06-24T08:42:24.533Z,101207.06
2023-06-24T08:44:17.482Z,101207.07
2023-06-24T08:46:11.249Z,101208.45
2023-06-24T08:48:06.389Z,101205.23
2023-06-24T08:50:09.429Z,101204.64
2023-06-24T08:52:11.449Z,101202.41
2023-06-24T08:54:04.882Z,101196.08
2023-06-24T08:55:59.162Z,101196.02
2023-06-24T08:57:52.390Z,101196.41
2023-06-24T08:59:45.846Z,101194.21
2023-06-24T09:01:39.048Z,101190.86
2023-06-24T09:03:32.257Z,101193.54
2023-06-24T09:05:25.301Z,101194.44
2023-06-24T09:07:31.895Z,101193.11
2023-06-24T09:09:32.973Z,101190.36
2023-06-24T09:11:29.134Z,101183.50
2023-06-24T09:13:24.234Z,101186.20
2023-06-24T09:15:17.183Z,101187.16
2023-06-24T09:17:10.865Z,101192.13
2023-06-24T09:19:03.900Z,101193.73
2023-06-24T09:20:56.852Z,101196.23
2023-06-24T09:22:51.132Z,101192.32
2023-06-24T09:24:49.129Z,101190.82
2023-06-24T09:26:47.871Z,101190.99
2023-06-24T09:28:41.026Z,101189.42
2023-06-24T09:30:33.986Z,101188.28
2023-06-24T09:32:33.307Z,101187.77
2023-06-24T09:34:29.995Z,101187.15
2023-06-24T09:36:23.774Z,101184.69
2023-06-24T09:38:33.484Z,101186.89
2023-06-24T09:40:26.780Z,101186.39
2023-06-24T09:42:22.897Z,101186.24
2023-06-24T09:44:17.684Z,101188.27
2023-06-24T09:46:10.800Z,101182.05
2023-06-24T09:48:05.265Z,101188.05
2023-06-24T09:49:58.793Z,101183.59
2023-06-24T09:52:00.711Z,101186.05
2023-06-24T09:53:55.964Z,101186.42
2023-06-24T09:55:50.221Z,101186.91
2023-06-24T09:57:46.939Z,101184.61
2023-06-24T09:59:41.448Z,101182.57
2023-06-24T10:01:42.504Z,101184.38
2023-06-24T10:03:40.242Z,101188.15
2023-06-24T10:05:33.693Z,101187.20
2023-06-24T10:07:28.685Z,101180.74
2023-06-24T10:09:21.872Z,101176.19
2023-06-24T10:11:15.111Z,101180.26
2023-06-24T10:13:08.973Z,101183.55
2023-06-24T10:15:02.741Z,101188.02
2023-06-24T10:17:03.443Z,101182.72
2023-06-24T10:19:04.309Z,101183.75
2023-06-24T10:20:57.872Z,101184.70
2023-06-24T10:22:52.268Z,101176.53
2023-06-24T10:24:48.354Z,101177.35
2023-06-24T10:26:42.488Z,101171.27
2023-06-24T10:29:06.182Z,101174.94
2023-06-24T10:31:00.286Z,101175.54
2023-06-24T10:32:55.433Z,101181.58
2023-06-24T10:34:55.194Z,101187.60
2023-06-24T10:37:00.348Z,101185.61
2023-06-24T10:38:57.515Z,101187.92
2023-06-24T10:40:50.634Z,101190.42
2023-06-24T10:42:44.440Z,101190.73
2023-06-24T10:44:49.231Z,101185.83
2023-06-24T10:46:42.537Z,101190.67
2023-06-24T10:48:35.635Z,101188.20
2023-06-24T10:50:28.604Z,101188.30
2023-06-24T10:52:23.171Z,101188.56
2023-06-24T10:54:16.017Z,101190.73
2023-06-24T10:56:10.027Z,101186.36
2023-06-24T10:58:13.814Z,101181.51
2023-06-24T11:00:07.553Z,101182.49
2023-06-24T11:02:00.431Z,101181.04
2023-06-24T11:03:53.457Z,101178.89
2023-06-24T11:05:47.839Z,101173.07
2023-06-24T11:07:41.813Z,101172.61
2023-06-24T11:09:34.961Z,101176.35
2023-06-24T11:11:29.961Z,101174.64
2023-06-24T11:13:24.083Z,101170.52
2023-06-24T11:15:17.227Z,101166.47
2023-06-24T11:17:10.542Z,101161.98
2023-06-24T11:19:06.328Z,101162.62
2023-06-24T11:20:59.581Z,101161.33
2023-06-24T11:22:52.663Z,101165.30
2023-06-24T11:24:45.611Z,101164.23
2023-06-24T11:26:39.916Z,101164.61
2023-06-24T11:28:34.013Z,101167.10
2023-06-24T11:30:27.372Z,101169.05
2023-06-24T11:32:24.570Z,101163.85
2023-06-24T11:34:18.647Z,101158.09
2023-06-24T11:36:12.229Z,101152.87
2023-06-24T11:38:06.619Z,101147.73
2023-06-24T11:40:21.225Z,101149.36
2023-06-24T11:42:15.486Z,101148.16
2023-06-24T11:44:12.667Z,101147.52
2023-06-24T11:46:06.274Z,101148.23
2023-06-24T11:48:06.109Z,101155.27
2023-06-24T11:49:59.826Z,101148.48
2023-06-24T11:51:54.130Z,101146.93
2023-06-24T11:53:47.461Z,101144.21
2023-06-24T11:55:40.858Z,101138.96
2023-06-24T11:57:53.638Z,101141.55
2023-06-24T11:59:52.963Z,101134.22
2023-06-24T12:02:00.845Z,101132.83
2023-06-24T12:03:54.724Z,101137.52
2023-06-24T12:05:48.608Z,101130.79
2023-06-24T12:07:41.617Z,101130.95
2023-06-24T12:09:34.563Z,101127.85
2023-06-24T12:11:27.478Z,101130.13
2023-06-24T12:13:22.785Z,101133.09
2023-06-24T12:15:16.075Z,101134.27
2023-06-24T12:17:09.120Z,101135.05
2023-06-24T12:19:02.373Z,101136.23
2023-06-24T12:20:56.218Z,101128.20
2023-06-24T12:23:08.650Z,101126.77
2023-06-24T12:25:01.867Z,101127.40
2023-06-24T12:26:58.435Z,101127.05
2023-06-24T12:28:51.506Z,101133.88
2023-06-24T12:30:49.306Z,101130.91
2023-06-24T12:32:42.756Z,101129.59
2023-06-24T12:34:39.856Z,101130.34
2023-06-24T12:36:33.447Z,101129.86
2023-06-24T12:38:32.668Z,101131.56
2023-06-24T12:40:26.005Z,101132.55
2023-06-24T12:42:21.815Z,101131.39
2023-06-24T12:44:15.457Z,101134.21
2023-06-24T12:46:11.578Z,101137.00
2023-06-24T12:48:05.005Z,101139.13
2023-06-24T12:49:58.197Z,101140.48
2023-06-24T12:51:53.798Z,101142.57
2023-06-24T12:53:51.233Z,101144.51
2023-06-24T12:55:48.187Z,101143.70
2023-06-24T12:57:47.191Z,101143.45
2023-06-24T12:59:40.411Z,101141.65
2023-06-24T13:01:36.331Z,101140.38
2023-06-24T13:03:29.329Z,101142.98
2023-06-24T13:05:23.792Z,101143.89
2023-06-24T13:07:17.369Z,101142.07
2023-06-24T13:09:10.338Z,101142.65
2023-06-24T13:11:03.378Z,101142.09
2023-06-24T13:12:58.174Z,101135.83
2023-06-24T13:14:51.402Z,101136.23
2023-06-24T13:16:44.448Z,101137.16
2023-06-24T13:18:37.438Z,101138.28
2023-06-24T13:20:30.446Z,101140.52
2023-06-24T13:22:23.601Z,101139.36
2023-06-24T13:24:17.059Z,101137.33
2023-06-24T13:26:10.111Z,101138.30
2023-06-24T13:28:03.368Z,101139.52
2023-06-24T13:29:56.429Z,101141.63
2023-06-24T13:31:49.369Z,101140.94
2023-06-24T13:33:42.517Z,101137.53
2023-06-24T13:35:35.577Z,101136.69
2023-06-24T13:37:28.526Z,101140.23
2023-06-24T13:39:24.965Z,101138.28
2023-06-24T13:41:18.102Z,101137.95
2023-06-24T13:43:11.152Z,101137.07
2023-06-24T13:45:04.817Z,101139.52
2023-06-24T13:46:57.798Z,101139.30
2023-06-24T13:48:51.153Z,101141.89
2023-06-24T13:50:44.099Z,101139.88
2023-06-24T13:52:37.121Z,101138.42
2023-06-24T13:54:34.030Z,101139.32
2023-06-24T13:56:27.837Z,101134.23
2023-06-24T13:58:20.777Z,101139.24
2023-06-24T14:00:14.657Z,101135.39
2023-06-24T14:02:10.137Z,101136.39
2023-06-24T14:04:03.322Z,101136.50
2023-06-24T14:05:58.029Z,101131.71
2023-06-24T14:07:50.952Z,101135.70
2023-06-24T14:09:44.042Z,101138.57
2023-06-24T14:11:37.764Z,101138.70
2023-06-24T14:13:31.125Z,101140.95
2023-06-24T14:15:24.096Z,101137.88
2023-06-24T14:17:17.257Z,101138.10
2023-06-24T14:19:10.327Z,101141.23
2023-06-24T14:21:05.459Z,101138.69
2023-06-24T14:22:58.525Z,101136.75
2023-06-24T14:24:51.375Z,101137.56
2023-06-24T14:26:45.259Z,101135.20
2023-06-24T14:28:38.292Z,101136.81
2023-06-24T14:30:31.613Z,101133.48
2023-06-24T14:32:25.258Z,101130.91
2023-06-24T14:34:19.918Z,101126.29
2023-06-24T14:36:12.862Z,101120.99
2023-06-24T14:38:06.487Z,101122.06
2023-06-24T14:39:59.565Z,101122.45
2023-06-24T14:41:52.614Z,101122.52
2023-06-24T14:43:45.675Z,101125.19
2023-06-24T14:45:38.614Z,101118.14
2023-06-24T14:47:32.364Z,101116.54
2023-06-24T14:49:25.356Z,101113.89
2023-06-24T14:51:18.299Z,101111.71
2023-06-24T14:53:11.237Z,101110.94
2023-06-24T14:55:04.489Z,101111.75
2023-06-24T14:56:58.145Z,101109.95
2023-06-24T14:58:52.715Z,101110.71
2023-06-24T15:00:48.449Z,101109.08
2023-06-24T15:02:41.484Z,101110.05
2023-06-24T15:04:36.591Z,101105.54
2023-06-24T15:06:30.464Z,101103.65
2023-06-24T15:08:23.409Z,101102.69
2023-06-24T15:10:16.481Z,101104.71
2023-06-24T15:12:09.721Z,101103.65
2023-06-24T15:14:02.869Z,101103.88
2023-06-24T15:15:57.590Z,101103.58
2023-06-24T15:17:50.634Z,101105.52
2023-06-24T15:19:43.567Z,101104.67
2023-06-24T15:21:37.584Z,101105.02
2023-06-24T15:23:30.889Z,101099.39
2023-06-24T15:25:23.939Z,101097.20
2023-06-24T15:27:16.996Z,101099.23
2023-06-24T15:29:09.952Z,101096.27
2023-06-24T15:31:02.991Z,101097.08
2023-06-24T15:32:56.086Z,101097.15
2023-06-24T15:34:49.208Z,101093.55
2023-06-24T15:36:42.249Z,101093.44
2023-06-24T15:38:35.127Z,101092.64
2023-06-24T15:40:28.140Z,101098.86
2023-06-24T15:42:21.099Z,101095.27
2023-06-24T15:44:14.139Z,101093.52
2023-06-24T15:46:07.599Z,101094.69
2023-06-24T15:48:00.911Z,101100.73
2023-06-24T15:49:54.110Z,101096.05
2023-06-24T15:51:47.466Z,101095.60
2023-06-24T15:53:40.520Z,101093.65
2023-06-24T15:55:33.672Z,101094.73
2023-06-24T15:57:29.059Z,101090.09
2023-06-24T15:59:24.277Z,101091.33
2023-06-24T16:01:17.458Z,101089.36
2023-06-24T16:03:10.882Z,101089.55
2023-06-24T16:05:09.694Z,101089.14
2023-06-24T16:07:02.655Z,101087.95
2023-06-24T16:08:55.983Z,101088.82
2023-06-24T16:10:48.882Z,101086.29
2023-06-24T16:12:41.892Z,101087.56
2023-06-24T16:14:34.828Z,101086.13
2023-06-24T16:16:27.788Z,101085.35
2023-06-24T16:18:20.622Z,101083.79
2023-06-24T16:20:17.563Z,101082.70
2023-06-24T16:22:10.627Z,101081.95
2023-06-24T16:24:04.280Z,101082.95
2023-06-24T16:25:57.429Z,101088.16
2023-06-24T16:27:50.381Z,101089.23
2023-06-24T16:29:43.430Z,101089.23
2023-06-24T16:31:36.505Z,101086.43
2023-06-24T16:33:29.633Z,101087.02
2023-06-24T16:35:22.715Z,101091.27
2023-06-24T16:37:15.631Z,101090.77
2023-06-24T16:39:08.599Z,101088.19
2023-06-24T16:41:02.060Z,101085.16
2023-06-24T16:42:55.606Z,101081.91
2023-06-24T16:44:48.663Z,101079.40
2023-06-24T16:46:41.773Z,101084.34
2023-06-24T16:48:34.855Z,101084.58
2023-06-24T16:50:27.812Z,101082.58
2023-06-24T16:52:20.862Z,101083.73
2023-06-24T16:54:14.113Z,101083.79
2023-06-24T16:56:07.224Z,101084.59
2023-06-24T16:58:00.144Z,101085.44
2023-06-24T16:59:53.092Z,101088.24
2023-06-24T17:01:46.108Z,101087.02
2023-06-24T17:03:38.990Z,101091.40
2023-06-24T17:05:31.829Z,101093.27
2023-06-24T17:07:24.784Z,101098.11
2023-06-24T17:09:17.906Z,101094.02
2023-06-24T17:11:10.867Z,101089.96
2023-06-24T17:13:03.909Z,101087.05
2023-06-24T17:14:56.951Z,101090.64
2023-06-24T17:16:49.910Z,101088.86
2023-06-24T17:18:42.852Z,101091.41
2023-06-24T17:20:36.211Z,101089.41
2023-06-24T17:22:29.276Z,101090.95
2023-06-24T17:24:24.091Z,101088.29
2023-06-24T17:26:17.203Z,101088.45
2023-06-24T17:28:10.258Z,101085.20
2023-06-24T17:30:04.434Z,101085.05
2023-06-24T17:31:57.486Z,101085.92
2023-06-24T17:33:50.434Z,101083.89
2023-06-24T17:35:43.592Z,101086.32
2023-06-24T17:37:36.479Z,101085.51
2023-06-24T17:39:29.482Z,101085.77
2023-06-24T17:41:24.380Z,101082.79
2023-06-24T17:43:17.426Z,101084.36
2023-06-24T17:45:10.473Z,101089.55
2023-06-24T17:47:03.743Z,101087.17
2023-06-24T17:48:56.553Z,101091.70
2023-06-24T17:50:49.698Z,101089.70
2023-06-24T17:52:42.881Z,101090.22
2023-06-24T17:54:35.834Z,101088.33
2023-06-24T17:56:29.845Z,101085.60
2023-06-24T17:58:22.964Z,101087.95
2023-06-24T18:00:18.397Z,101086.18
2023-06-24T18:02:12.189Z,101084.63
2023-06-24T18:04:05.485Z,101084.90
2023-06-24T18:05:58.531Z,101080.69
2023-06-24T18:07:51.599Z,101081.86
2023-06-24T18:09:44.736Z,101087.83
2023-06-24T18:11:37.685Z,101090.23
2023-06-24T18:13:31.045Z,101088.36
2023-06-24T18:15:24.722Z,101090.31
2023-06-24T18:17:20.148Z,101095.71
2023-06-24T18:19:14.184Z,101092.38
2023-06-24T18:21:07.136Z,101093.57
2023-06-24T18:23:00.185Z,101092.92
2023-06-24T18:24:54.770Z,101092.61
2023-06-24T18:26:50.418Z,101089.53
2023-06-24T18:28:49.819Z,101091.56
2023-06-24T18:30:42.850Z,101090.70
2023-06-24T18:32:37.678Z,101090.01
2023-06-24T18:34:34.321Z,101088.71
2023-06-24T18:36:29.063Z,101089.53
2023-06-24T18:38:22.000Z,101089.95
2023-06-24T18:40:14.957Z,101089.09
2023-06-24T18:42:09.443Z,101092.17
2023-06-24T18:44:04.247Z,101091.03
2023-06-24T18:45:57.173Z,101090.46
2023-06-24T18:47:59.397Z,101088.52
2023-06-24T18:49:52.959Z,101087.05
2023-06-24T18:51:46.797Z,101088.69
2023-06-24T18:53:39.708Z,101090.27
2023-06-24T18:55:35.745Z,101085.82
2023-06-24T18:57:28.703Z,101089.84
2023-06-24T18:59:21.637Z,101091.23
2023-06-24T19:01:14.584Z,101095.33
2023-06-24T19:03:07.613Z,101098.55
2023-06-24T19:05:00.910Z,101096.23
2023-06-24T19:06:53.992Z,101097.74
2023-06-24T19:08:48.729Z,101095.15
2023-06-24T19:10:41.678Z,101101.40
2023-06-24T19:12:34.629Z,101107.36
2023-06-24T19:14:28.829Z,101106.93
2023-06-24T19:16:22.363Z,101109.38
2023-06-24T19:18:15.333Z,101107.28
2023-06-24T19:20:09.282Z,101109.02
2023-06-24T19:22:04.912Z,101109.48
2023-06-24T19:23:59.397Z,101112.17
2023-06-24T19:25:52.432Z,101108.00
2023-06-24T19:27:45.392Z,101110.52
2023-06-24T19:29:38.326Z,101112.59
2023-06-24T19:31:31.482Z,101117.48
2023-06-24T19:33:28.017Z,101121.45
2023-06-24T19:35:20.968Z,101123.40
2023-06-24T19:37:14.114Z,101124.55
2023-06-24T19:39:07.065Z,101125.11
2023-06-24T19:41:00.007Z,101123.06
2023-06-24T19:42:52.956Z,101126.30
2023-06-24T19:44:45.950Z,101124.92
2023-06-24T19:46:42.341Z,101124.02
2023-06-24T19:48:35.848Z,101128.31
2023-06-24T19:50:28.845Z,101131.03
2023-06-24T19:52:22.814Z,101128.38
2023-06-24T19:54:15.625Z,101130.04
2023-06-24T19:56:08.613Z,101132.38
2023-06-24T19:58:01.608Z,101132.27
2023-06-24T19:59:54.618Z,101130.45
2023-06-24T20:01:47.743Z,101131.45
2023-06-24T20:03:40.710Z,101131.05
2023-06-24T20:05:33.768Z,101134.38
2023-06-24T20:07:27.054Z,101135.66
2023-06-24T20:09:20.987Z,101134.05
2023-06-24T20:11:14.143Z,101137.33
2023-06-24T20:13:07.147Z,101136.60
2023-06-24T20:15:06.192Z,101139.31
2023-06-24T20:16:59.185Z,101140.66
2023-06-24T20:18:54.480Z,101137.55
2023-06-24T20:20:47.486Z,101138.71
2023-06-24T20:22:40.570Z,101139.88
2023-06-24T20:24:33.588Z,101141.70
2023-06-24T20:26:26.638Z,101143.56
2023-06-24T20:28:20.306Z,101143.77
2023-06-24T20:30:13.582Z,101148.38
2023-06-24T20:32:09.106Z,101147.47
2023-06-24T20:34:02.016Z,101149.13
2023-06-24T20:35:55.917Z,101152.55
2023-06-24T20:37:48.795Z,101147.54
2023-06-24T20:39:43.742Z,101144.74
2023-06-24T20:41:36.624Z,101144.73
2023-06-24T20:43:31.495Z,101144.79
2023-06-24T20:45:24.829Z,101144.38
2023-06-24T20:47:17.792Z,101144.91
2023-06-24T20:49:10.821Z,101143.89
2023-06-24T20:51:03.973Z,101144.85
2023-06-24T20:52:58.971Z,101142.66
2023-06-24T20:54:51.866Z,101143.52
2023-06-24T20:56:44.865Z,101142.02
2023-06-24T20:58:41.950Z,101143.42
2023-06-24T21:00:35.353Z,101141.52
2023-06-24T21:02:28.658Z,101139.48
2023-06-24T21:04:22.295Z,101140.48
2023-06-24T21:06:15.237Z,101145.48
2023-06-24T21:08:09.004Z,101146.48
2023-06-24T21:10:02.056Z,101146.06
2023-06-24T21:11:55.105Z,101149.20
2023-06-24T21:13:48.522Z,101146.34
2023-06-24T21:15:41.822Z,101148.44
2023-06-24T21:17:34.821Z,101151.34
2023-06-24T21:19:27.821Z,101151.23
2023-06-24T21:21:20.880Z,101149.22
2023-06-24T21:23:16.530Z,101145.64
2023-06-24T21:25:10.465Z,101146.10
2023-06-24T21:27:03.618Z,101147.44
2023-06-24T21:28:56.560Z,101149.48
2023-06-24T21:30:51.768Z,101147.96
2023-06-24T21:32:45.266Z,101149.33
2023-06-24T21:34:38.269Z,101151.98
2023-06-24T21:36:32.341Z,101151.33
2023-06-24T21:38:25.309Z,101148.41
2023-06-24T21:40:18.242Z,101150.75
2023-06-24T21:42:11.290Z,101155.27
2023-06-24T21:44:04.652Z,101153.19
2023-06-24T21:45:58.329Z,101157.53
2023-06-24T21:47:51.437Z,101157.73
2023-06-24T21:49:46.877Z,101155.66